ADDS METAR Data INFO
IDs: Format: Raw Decoded Include TAF

Data at: 0902 UTC 20 Oct 2017

KMIE 200853Z AUTO 18003KT 10SM CLR 09/07 A3023 RMK AO2 SLP233 T00890072 53003
KMIE 200753Z AUTO 19003KT 7SM CLR 08/07 A3023 RMK AO2 SLP231 T00780067
KMIE 200653Z AUTO 19003KT 8SM CLR 09/07 A3023 RMK AO2 SLP230 T00890072
KMIE 200553Z AUTO 00000KT 10SM CLR 09/07 A3022 RMK AO2 SLP229 T00940072 10144 20089 53004
KMIE 200453Z AUTO 00000KT 10SM CLR 09/08 A3022 RMK AO2 SLP228 T00940078 402390094
KMIE 200353Z AUTO 00000KT 10SM CLR 10/08 A3022 RMK AO2 SLP228 T01000078
KMIE 200253Z AUTO 00000KT 10SM CLR 11/09 A3021 RMK AO2 SLP227 T01110089 51005
KMIE 200153Z 23003KT 10SM CLR 12/09 A3021 RMK AO2 SLP224 T01170094
KMIE 200053Z 00000KT 10SM CLR 13/10 A3021 RMK AO2 SLP226 T01280100
KMIE 192353Z 00000KT 10SM CLR 14/11 A3020 RMK AO2 SLP222 T01390106 10239 20139 53007
KMIE 192253Z 22003KT 10SM CLR 21/10 A3018 RMK AO2 SLP214 T02060100
KMIE 192153Z 23006KT 10SM CLR 23/10 A3017 RMK AO2 SLP211 T02280100
KMIE 192053Z VRB06KT 10SM CLR 23/09 A3017 RMK AO2 SLP211 T02330094 56003
KMIE 191953Z 23008KT 10SM CLR 23/09 A3017 RMK AO2 SLP211 T02330094
KMIE 191853Z 26005KT 10SM CLR 23/09 A3018 RMK AO2 SLP212 T02280094
KMIE 191834Z 24007KT 10SM CLR 23/10 A3018 RMK AO2 T02280100
KMIE 191753Z 23008KT 10SM CLR 22/09 A3018 RMK AO2 SLP215 T02220094 10222 20122 58006
KMIE 191733Z 28006KT 10SM CLR 22/09 A3019 RMK AO2 T02220094
KMIE 191653Z 27007KT 10SM CLR 21/09 A3020 RMK AO2 SLP219 T02110094
KMIE 191620Z VRB06KT 10SM CLR 20/09 A3020 RMK AO2 T02000094
KMIE 191604Z 27006KT 10SM CLR 20/09 A3019 RMK AO2 T02000094
KMIE 191553Z 24008KT 10SM CLR 19/09 A3020 RMK AO2 SLP219 T01940089
KMIE 191506Z 25009G15KT 10SM CLR 18/09 A3020 RMK AO2 T01830089
KMIE 191453Z 23010KT 10SM CLR 18/09 A3020 RMK AO2 SLP223 T01780089 51015
KMIE 191353Z 23008KT 10SM CLR 16/08 A3019 RMK AO2 SLP220 T01560083
KMIE 191253Z 22006KT 10SM CLR 13/08 A3017 RMK AO2 SLP214 T01330078
KMIE 191153Z 22007KT 10SM CLR 12/07 A3016 RMK AO2 SLP208 T01220072 10133 20122 53005
KMIE 191053Z 22007KT 10SM CLR 12/07 A3015 RMK AO2 SLP206 T01220072
KMIE 190953Z 22007KT 10SM CLR 13/07 A3015 RMK AO2 SLP203 T01280072
KMIE 190853Z AUTO 23008KT 10SM CLR 13/07 A3014 RMK AO2 SLP202 T01330072 58007
KMIE 190753Z AUTO 22007KT 10SM CLR 13/07 A3016 RMK AO2 SLP207 T01280067
KMIE 190653Z AUTO 23006KT 10SM CLR 13/07 A3016 RMK AO2 SLP206 T01280067
KMIE 190553Z AUTO 20005KT 10SM CLR 13/07 A3017 RMK AO2 SLP209 T01280067 10161 20122 51003
KMIE 190453Z AUTO 19005KT 10SM CLR 13/07 A3016 RMK AO2 SLP208 T01280067 402170044
KMIE 190353Z AUTO 21006KT 10SM CLR 14/07 A3016 RMK AO2 SLP208 T01390067
KMIE 190253Z AUTO 20006KT 10SM CLR 14/07 A3016 RMK AO2 SLP206 T01390067 51000
KMIE 190153Z 20005KT 10SM CLR 14/07 A3016 RMK AO2 SLP207 T01440067
KMIE 190133Z 20005KT 10SM CLR 14/06 A3016 RMK AO2 T01440061
KMIE 190053Z 20006KT 10SM CLR 16/06 A3016 RMK AO2 SLP210 T01560061
KMIE 182353Z 19006KT 10SM CLR 17/06 A3015 RMK AO2 SLP209 T01670056 10217 20167 56005
KMIE 182253Z 19005KT 10SM CLR 18/04 A3016 RMK AO2 SLP208 T01830044
KMIE 182227Z 20008G15KT 10SM CLR 19/04 A3016 RMK AO2 T01940039
KMIE 182153Z 20011KT 10SM CLR 21/03 A3016 RMK AO2 SLP210 T02060033
KMIE 182134Z 21011G17KT 10SM CLR 21/03 A3016 RMK AO2 T02060033